Time;durP1;ratioP1;P1;durP2;ratioP2;P2;SDS_P1;SDS_P2;PMS_P1;PMS_P2;Temp;Humidity;BMP_temperature;BMP_pressure;BME280_temperature;BME280_humidity;BME280_pressure;Samples;Min_cycle;Max_cycle;Signal;HPM_P1;HPM_P2
2023/12/26 00:00:06;;;;;;;13.85;3.15;;;;;;;13.40;65.47;100998.97;5053048;28;20087;-60
2023/12/26 00:02:38;;;;;;;21.15;3.30;;;;;;;13.27;65.52;100996.31;5052479;28;20064;-60
2023/12/26 00:05:06;;;;;;;21.15;3.00;;;;;;;13.20;66.28;100994.06;5052844;28;20057;-61
2023/12/26 00:07:33;;;;;;;20.85;4.47;;;;;;;13.27;66.33;100999.91;5052437;28;20056;-61
2023/12/26 00:10:00;;;;;;;16.88;2.95;;;;;;;13.32;66.48;100997.00;5035174;28;20057;-61
2023/12/26 00:12:28;;;;;;;23.52;3.97;;;;;;;13.32;66.63;100988.69;5052358;28;20055;-60
2023/12/26 00:14:55;;;;;;;21.40;3.92;;;;;;;13.33;66.40;100987.56;5052659;28;20060;-61
2023/12/26 00:17:22;;;;;;;21.35;3.78;;;;;;;13.54;65.89;100991.31;5051732;28;20044;-61
2023/12/26 00:19:50;;;;;;;18.50;2.92;;;;;;;13.60;65.41;100989.16;5051067;28;20056;-61
2023/12/26 00:22:17;;;;;;;14.60;2.90;;;;;;;13.56;65.37;100989.00;5052658;28;20049;-60
2023/12/26 00:24:46;;;;;;;19.80;3.90;;;;;;;13.44;65.61;100982.53;5034809;28;20056;-61
2023/12/26 00:27:13;;;;;;;13.45;2.97;;;;;;;13.40;65.35;100982.38;5034374;28;20064;-61
2023/12/26 00:29:41;;;;;;;16.67;2.83;;;;;;;13.29;66.07;100974.69;5037480;28;20045;-60
2023/12/26 00:32:09;;;;;;;14.73;2.53;;;;;;;13.12;66.87;100966.38;5015198;28;20062;-60
2023/12/26 00:34:36;;;;;;;21.67;3.17;;;;;;;13.06;66.86;100973.19;5002621;28;20049;-60
2023/12/26 00:37:04;;;;;;;14.63;2.70;;;;;;;13.04;67.02;100972.75;5019699;28;20544;-61
2023/12/26 00:39:31;;;;;;;19.67;3.25;;;;;;;12.98;66.99;100968.47;5037991;28;20053;-61
2023/12/26 00:41:58;;;;;;;18.33;3.17;;;;;;;13.05;66.60;100964.13;5020709;28;20512;-60
2023/12/26 00:44:27;;;;;;;19.92;3.08;;;;;;;12.91;66.70;100973.66;5039046;28;20544;-66
2023/12/26 00:46:54;;;;;;;17.77;2.75;;;;;;;12.95;67.24;100974.63;5033632;28;20064;-67
2023/12/26 00:49:21;;;;;;;20.73;3.95;;;;;;;13.20;66.29;100960.84;5008060;28;20057;-66
2023/12/26 00:51:49;;;;;;;17.98;3.53;;;;;;;13.04;66.53;100961.69;5037299;28;20511;-66
2023/12/26 00:54:16;;;;;;;16.48;2.80;;;;;;;12.96;67.11;100960.50;5039459;28;20045;-66
2023/12/26 00:56:44;;;;;;;17.90;3.53;;;;;;;13.15;66.27;100958.25;5021129;28;20063;-66
2023/12/26 00:59:11;;;;;;;19.02;3.78;;;;;;;13.24;66.01;100964.63;5053974;28;20056;-67
2023/12/26 01:01:40;;;;;;;19.50;3.00;;;;;;;13.39;65.47;100966.88;5005474;28;20702;-65
2023/12/26 01:04:07;;;;;;;15.32;2.70;;;;;;;13.50;64.75;100959.06;5043032;28;20049;-66
2023/12/26 01:06:34;;;;;;;16.77;2.97;;;;;;;13.37;64.84;100965.59;5059101;28;20048;-65
2023/12/26 01:09:02;;;;;;;14.88;3.03;;;;;;;13.30;65.19;100974.38;5059225;28;20048;-65
2023/12/26 01:11:29;;;;;;;19.70;2.92;;;;;;;13.58;64.63;100970.13;5059377;28;20384;-66
2023/12/26 01:13:57;;;;;;;20.65;2.80;;;;;;;13.36;65.25;100973.06;5059252;28;20056;-65
2023/12/26 01:16:27;;;;;;;18.52;3.03;;;;;;;13.46;64.85;100966.38;5059385;28;20483;-65
2023/12/26 01:18:55;;;;;;;17.17;3.20;;;;;;;13.06;66.19;100971.25;5007390;28;20163;-67
2023/12/26 01:21:23;;;;;;;23.10;3.05;;;;;;;13.09;66.46;100973.38;5058943;28;20048;-66
2023/12/26 01:23:52;;;;;;;17.58;2.90;;;;;;;13.28;65.89;100971.13;5058965;28;20657;-66
2023/12/26 01:26:20;;;;;;;16.85;2.58;;;;;;;13.27;66.17;100965.91;5040853;28;20061;-65
2023/12/26 01:28:47;;;;;;;18.95;3.28;;;;;;;12.96;67.30;100963.25;5058831;28;20041;-65
2023/12/26 01:31:14;;;;;;;16.85;3.22;;;;;;;13.23;67.21;100976.00;5058766;28;20045;-66
2023/12/26 01:33:42;;;;;;;23.92;3.67;;;;;;;13.32;66.78;100968.50;5051503;28;20053;-65
2023/12/26 01:36:09;;;;;;;19.48;3.13;;;;;;;13.40;66.36;100962.16;5039500;28;20504;-66
2023/12/26 01:38:37;;;;;;;18.17;3.38;;;;;;;13.15;67.14;100966.56;5058008;28;20452;-65
2023/12/26 01:41:04;;;;;;;16.63;3.05;;;;;;;13.06;67.52;100971.25;5040668;28;20056;-66
2023/12/26 01:43:31;;;;;;;17.88;2.97;;;;;;;13.21;67.27;100968.03;5058914;28;20048;-66
2023/12/26 01:45:59;;;;;;;18.33;3.00;;;;;;;13.25;67.36;100970.97;5040616;28;20049;-66
2023/12/26 01:48:27;;;;;;;15.48;3.20;;;;;;;13.15;67.17;100966.56;5015518;28;20060;-65
2023/12/26 01:50:56;;;;;;;19.25;3.42;;;;;;;13.13;67.80;100968.81;4984764;28;20053;-66
2023/12/26 01:53:23;;;;;;;19.23;4.10;;;;;;;13.13;67.67;100968.00;5000313;28;20053;-66
2023/12/26 01:55:51;;;;;;;16.90;2.55;;;;;;;13.37;67.44;100983.00;5035203;28;20171;-66
2023/12/26 01:58:19;;;;;;;21.38;3.30;;;;;;;13.47;66.39;100979.91;5047424;28;20056;-66
2023/12/26 02:00:48;;;;;;;11.90;2.60;;;;;;;13.09;67.91;100983.63;5037659;28;20056;-67
2023/12/26 02:03:16;;;;;;;20.33;3.25;;;;;;;13.16;67.69;100981.22;5037554;28;20377;-65
2023/12/26 02:05:45;;;;;;;18.63;3.53;;;;;;;13.36;67.22;100977.78;5033749;28;20049;-66
2023/12/26 02:08:14;;;;;;;15.97;3.03;;;;;;;13.07;67.94;100980.38;5004120;28;20057;-66
2023/12/26 02:10:45;;;;;;;19.63;3.95;;;;;;;13.08;68.22;100977.28;5036285;28;20306;-66
2023/12/26 02:13:13;;;;;;;21.30;3.75;;;;;;;12.84;68.96;100984.38;5047131;28;20056;-66
2023/12/26 02:15:40;;;;;;;15.48;2.78;;;;;;;12.87;69.22;100986.47;5019675;28;20440;-60
2023/12/26 02:18:08;;;;;;;21.35;2.95;;;;;;;12.87;68.58;100984.53;5032408;28;20048;-61
2023/12/26 02:20:36;;;;;;;22.05;3.10;;;;;;;12.67;69.94;100984.31;5033309;28;20049;-61
2023/12/26 02:23:03;;;;;;;16.73;2.75;;;;;;;12.70;69.80;100986.44;5051695;28;20060;-61
2023/12/26 02:25:31;;;;;;;20.60;2.88;;;;;;;12.86;69.67;100985.69;5004047;28;20088;-61
2023/12/26 02:28:00;;;;;;;18.95;3.10;;;;;;;12.59;70.38;100987.88;5034052;28;20057;-60
2023/12/26 02:30:28;;;;;;;16.60;3.30;;;;;;;13.09;69.16;100983.63;5003544;28;20053;-61
2023/12/26 02:32:56;;;;;;;17.45;2.65;;;;;;;12.95;69.07;100981.00;5053603;28;20048;-60
2023/12/26 02:35:24;;;;;;;16.35;2.42;;;;;;;13.07;68.72;100986.72;5036191;28;20049;-62
2023/12/26 02:37:52;;;;;;;19.20;2.88;;;;;;;12.91;69.68;100998.53;5051661;28;20052;-61
2023/12/26 02:40:19;;;;;;;20.70;2.90;;;;;;;13.00;69.24;100988.31;5052783;28;20055;-60
2023/12/26 02:42:47;;;;;;;25.25;3.55;;;;;;;12.93;69.43;100983.25;5036798;28;20048;-61
2023/12/26 02:45:14;;;;;;;21.13;3.55;;;;;;;13.08;69.20;100991.13;5002836;28;20060;-60
2023/12/26 02:47:42;;;;;;;15.10;3.00;;;;;;;13.11;69.11;100979.41;5052191;28;20052;-60
2023/12/26 02:50:09;;;;;;;22.75;3.63;;;;;;;13.06;69.50;100982.31;5030230;28;20056;-60
2023/12/26 02:52:37;;;;;;;23.20;3.35;;;;;;;13.19;69.15;100981.38;5053965;28;20057;-60
2023/12/26 02:55:05;;;;;;;14.40;3.05;;;;;;;13.32;68.26;100976.81;5036095;28;20068;-61
2023/12/26 02:57:32;;;;;;;22.60;3.80;;;;;;;13.16;68.48;100976.47;5030291;28;20352;-62
2023/12/26 03:00:00;;;;;;;22.17;2.65;;;;;;;13.07;69.30;100969.31;5020804;28;20060;-61
2023/12/26 03:02:27;;;;;;;17.77;3.05;;;;;;;13.18;69.24;100965.09;5034112;28;20053;-60
2023/12/26 03:04:54;;;;;;;25.17;3.60;;;;;;;13.03;69.87;100965.56;5046449;28;20053;-61
2023/12/26 03:07:22;;;;;;;14.18;2.75;;;;;;;13.12;70.04;100969.97;5052209;28;20049;-61
2023/12/26 03:09:49;;;;;;;13.07;2.83;;;;;;;12.77;70.63;100978.50;5053780;28;20060;-60
2023/12/26 03:12:17;;;;;;;21.15;2.80;;;;;;;13.06;70.22;100976.78;5053545;28;20056;-60
2023/12/26 03:14:44;;;;;;;16.13;3.28;;;;;;;13.10;70.44;100965.91;5053470;28;20060;-60
2023/12/26 03:17:11;;;;;;;18.33;3.28;;;;;;;12.85;70.74;100967.44;5053741;28;20049;-61
2023/12/26 03:19:39;;;;;;;20.60;2.67;;;;;;;13.05;70.59;100972.41;5035446;28;20119;-61
2023/12/26 03:22:06;;;;;;;16.27;2.85;;;;;;;12.98;70.61;100969.28;5002680;28;20049;-61
2023/12/26 03:24:34;;;;;;;17.60;2.45;;;;;;;12.70;71.61;100980.91;5015450;28;20604;-62
2023/12/26 03:27:01;;;;;;;19.17;3.47;;;;;;;12.77;72.02;100984.03;5033879;28;20050;-59
2023/12/26 03:29:28;;;;;;;22.77;3.55;;;;;;;12.89;71.49;100967.63;5031883;28;20674;-60
2023/12/26 03:31:57;;;;;;;19.08;2.83;;;;;;;12.81;72.12;100976.72;5032230;28;20056;-61
2023/12/26 03:34:24;;;;;;;17.13;2.70;;;;;;;12.60;72.50;100979.28;5006644;28;20057;-60
2023/12/26 03:36:52;;;;;;;19.58;3.40;;;;;;;13.05;71.39;100977.13;5015237;28;20489;-61
2023/12/26 03:39:19;;;;;;;21.98;3.53;;;;;;;12.90;71.36;100989.41;5015548;28;20046;-60
2023/12/26 03:41:48;;;;;;;20.67;3.72;;;;;;;12.71;72.55;100975.06;5015608;28;20075;-61
2023/12/26 03:44:17;;;;;;;15.00;2.95;;;;;;;12.80;71.95;100969.56;5032156;28;20428;-61
2023/12/26 03:46:45;;;;;;;20.42;3.25;;;;;;;12.72;72.02;100971.19;5026848;28;20053;-62
2023/12/26 03:49:12;;;;;;;16.92;3.13;;;;;;;12.96;71.50;100967.97;5022980;28;20041;-61
2023/12/26 03:51:41;;;;;;;19.17;2.93;;;;;;;12.96;72.18;100959.66;5018338;28;20060;-61
2023/12/26 03:54:09;;;;;;;20.80;2.72;;;;;;;13.23;70.91;100957.44;5031935;28;20041;-60
2023/12/26 03:56:36;;;;;;;20.00;2.53;;;;;;;13.16;70.56;100946.03;4997849;28;20053;-60
2023/12/26 03:59:04;;;;;;;18.23;3.35;;;;;;;13.08;70.87;100963.47;5033880;28;20060;-62
2023/12/26 04:01:31;;;;;;;16.55;2.70;;;;;;;12.96;71.71;100952.19;5051783;28;20045;-60
2023/12/26 04:03:59;;;;;;;18.02;2.90;;;;;;;13.08;71.82;100966.22;5034649;28;20124;-61
2023/12/26 04:06:27;;;;;;;15.98;2.97;;;;;;;13.08;71.48;100965.41;5017615;28;20052;-60
2023/12/26 04:08:54;;;;;;;12.27;2.97;;;;;;;12.89;71.46;100976.75;5050383;28;20053;-61
2023/12/26 04:11:22;;;;;;;18.98;3.20;;;;;;;12.89;72.15;100971.22;5049771;28;20060;-61
2023/12/26 04:13:50;;;;;;;18.60;3.58;;;;;;;12.81;72.40;100985.00;5034694;28;20056;-61
2023/12/26 04:16:17;;;;;;;15.77;2.92;;;;;;;12.56;73.86;100985.75;5051046;28;20048;-65
2023/12/26 04:18:45;;;;;;;20.65;3.58;;;;;;;12.58;74.33;100991.78;5016581;28;20045;-62
2023/12/26 04:21:12;;;;;;;21.13;2.85;;;;;;;12.55;74.21;100992.41;5051934;28;20423;-61
2023/12/26 04:23:42;;;;;;;18.55;3.15;;;;;;;12.47;74.83;100994.00;5018146;28;20051;-61
2023/12/26 04:26:10;;;;;;;19.05;2.95;;;;;;;12.66;74.43;101000.09;5034813;28;20057;-59
2023/12/26 04:28:37;;;;;;;17.80;2.60;;;;;;;12.89;73.91;101003.56;5012568;28;20053;-60
2023/12/26 04:31:05;;;;;;;12.20;2.47;;;;;;;12.75;73.62;101002.88;4997317;28;20725;-61
2023/12/26 04:33:32;;;;;;;13.40;2.55;;;;;;;12.64;74.03;101005.13;5024967;28;20072;-61
2023/12/26 04:36:00;;;;;;;23.13;3.28;;;;;;;12.46;75.49;101007.00;5050161;28;20060;-60
2023/12/26 04:38:27;;;;;;;18.23;2.90;;;;;;;12.49;75.83;101013.84;5039806;28;20060;-60
2023/12/26 04:40:55;;;;;;;16.98;2.50;;;;;;;12.69;75.44;101013.28;5047477;28;20058;-62
2023/12/26 04:43:22;;;;;;;22.85;3.65;;;;;;;12.74;74.92;101015.06;5051138;28;20053;-60
2023/12/26 04:45:49;;;;;;;14.68;2.53;;;;;;;12.84;74.34;101009.25;5017675;28;20262;-60
2023/12/26 04:48:17;;;;;;;18.27;2.78;;;;;;;12.85;74.26;101014.44;5062543;28;20049;-60
2023/12/26 04:50:44;;;;;;;16.10;2.83;;;;;;;12.99;73.92;101015.13;5000696;28;20075;-60
2023/12/26 04:53:12;;;;;;;22.13;3.17;;;;;;;13.02;73.77;101016.50;5035611;28;20058;-60
2023/12/26 04:55:40;;;;;;;16.70;2.63;;;;;;;12.77;74.88;101015.25;5029697;28;20053;-61
2023/12/26 04:58:07;;;;;;;13.75;2.38;;;;;;;12.90;74.58;101011.53;5034102;28;20107;-61
2023/12/26 05:00:35;;;;;;;14.27;3.20;;;;;;;12.68;75.28;101008.88;5044265;28;20515;-60
2023/12/26 05:03:03;;;;;;;18.85;2.85;;;;;;;12.79;75.24;101012.16;5052082;28;20052;-61
2023/12/26 05:05:31;;;;;;;17.08;2.92;;;;;;;12.71;75.27;101011.00;5021536;28;20508;-60
2023/12/26 05:07:58;;;;;;;21.35;3.15;;;;;;;12.74;75.81;101018.66;5051863;28;20057;-60
2023/12/26 05:10:25;;;;;;;17.25;2.83;;;;;;;12.93;74.93;101027.50;5033964;28;20044;-60
2023/12/26 05:12:53;;;;;;;21.77;3.40;;;;;;;12.85;74.83;101024.72;5017491;28;20159;-60
2023/12/26 05:15:21;;;;;;;22.58;3.45;;;;;;;12.96;74.41;101035.16;5050705;28;20068;-62
2023/12/26 05:17:49;;;;;;;16.55;2.70;;;;;;;12.91;74.85;101040.81;5034083;28;20053;-59
2023/12/26 05:20:17;;;;;;;18.55;3.70;;;;;;;13.03;74.29;101040.22;5049283;28;20083;-61
2023/12/26 05:22:57;;;;;;;18.35;3.17;;;;;;;12.85;74.49;101046.84;5054051;28;20478;-61
2023/12/26 05:25:26;;;;;;;14.45;2.85;;;;;;;12.84;75.45;101039.66;5017451;28;20057;-61
2023/12/26 05:27:54;;;;;;;15.38;2.78;;;;;;;13.01;75.08;101048.81;5049809;28;20060;-62
2023/12/26 05:30:22;;;;;;;19.75;3.10;;;;;;;12.72;75.73;101054.09;5037577;28;20060;-61
2023/12/26 05:32:49;;;;;;;13.88;2.97;;;;;;;12.80;75.53;101056.06;5054525;28;20049;-62
2023/12/26 05:35:20;;;;;;;23.25;3.38;;;;;;;12.89;75.76;101056.09;5037859;28;20056;-61
2023/12/26 05:37:47;;;;;;;16.40;2.75;;;;;;;12.90;75.34;101060.50;5021613;28;20128;-62
2023/12/26 05:40:15;;;;;;;17.33;2.67;;;;;;;12.93;75.81;101062.63;5050820;28;20052;-61
2023/12/26 05:42:42;;;;;;;22.33;3.50;;;;;;;13.01;75.36;101072.88;5055089;28;20061;-60
2023/12/26 05:45:09;;;;;;;21.70;3.83;;;;;;;12.88;75.78;101073.84;5055484;28;20057;-61
2023/12/26 05:47:37;;;;;;;21.63;3.55;;;;;;;12.86;76.56;101076.91;5037326;28;20053;-61
2023/12/26 05:50:06;;;;;;;14.00;2.88;;;;;;;12.78;76.21;101080.44;5053179;28;20055;-62
2023/12/26 05:52:34;;;;;;;16.77;3.27;;;;;;;12.85;76.55;101088.31;5053704;28;20057;-62
2023/12/26 05:55:01;;;;;;;17.27;3.28;;;;;;;12.78;77.01;101082.41;5049670;28;20048;-62
2023/12/26 05:57:29;;;;;;;19.58;3.10;;;;;;;12.74;77.38;101089.72;5017064;28;20057;-60
2023/12/26 05:59:56;;;;;;;19.98;3.05;;;;;;;12.74;77.39;101090.53;5022210;28;20484;-60
2023/12/26 06:02:23;;;;;;;16.92;2.92;;;;;;;12.90;76.86;101090.91;5053178;28;20053;-60
2023/12/26 06:04:51;;;;;;;19.10;3.20;;;;;;;12.99;76.39;101098.09;5053592;28;20080;-62
2023/12/26 06:07:18;;;;;;;21.95;2.88;;;;;;;12.79;76.92;101100.63;5019522;28;20045;-62
2023/12/26 06:09:46;;;;;;;17.10;3.25;;;;;;;12.75;77.37;101094.91;5047975;28;20053;-60
2023/12/26 06:12:13;;;;;;;22.65;4.25;;;;;;;12.89;77.06;101098.38;5036098;28;20056;-61
2023/12/26 06:14:42;;;;;;;15.13;2.95;;;;;;;12.72;78.10;101103.84;5050403;28;20056;-60
2023/12/26 06:17:09;;;;;;;19.38;3.40;;;;;;;12.93;77.45;101113.22;5039091;28;20064;-61
2023/12/26 06:19:37;;;;;;;17.05;3.03;;;;;;;12.99;78.00;101100.84;5015499;28;20053;-61
2023/12/26 06:22:04;;;;;;;20.70;3.85;;;;;;;12.78;79.08;101102.56;5027554;28;20049;-61
2023/12/26 06:24:32;;;;;;;16.58;2.67;;;;;;;12.97;79.23;101103.13;5020124;28;20540;-61
2023/12/26 06:26:59;;;;;;;23.00;2.97;;;;;;;12.85;79.82;101099.34;5036627;28;20547;-62
2023/12/26 06:29:26;;;;;;;18.23;2.40;;;;;;;12.80;81.22;101103.06;5035657;28;20049;-61
2023/12/26 06:31:54;;;;;;;16.52;3.20;;;;;;;12.70;82.38;101097.81;5036110;28;20045;-61
2023/12/26 06:34:21;;;;;;;19.92;3.13;;;;;;;12.56;83.98;101096.28;5034614;28;20534;-60
2023/12/26 06:36:49;;;;;;;19.27;3.10;;;;;;;12.69;84.26;101089.84;5035249;28;20053;-61
2023/12/26 06:39:17;;;;;;;23.65;3.08;;;;;;;12.69;84.33;101095.38;5016512;28;20072;-61
2023/12/26 06:41:46;;;;;;;23.67;3.30;;;;;;;12.48;85.60;101106.16;5015894;28;20046;-61
2023/12/26 06:44:13;;;;;;;25.23;3.47;;;;;;;12.77;84.81;101095.41;5022041;28;20045;-62
2023/12/26 06:46:42;;;;;;;15.57;2.95;;;;;;;12.66;84.72;101107.88;5035834;28;20067;-61
2023/12/26 06:49:10;;;;;;;23.65;3.97;;;;;;;12.50;85.77;101114.94;5038258;28;20056;-61
2023/12/26 06:51:40;;;;;;;18.02;3.45;;;;;;;12.42;86.48;101124.00;5034347;28;20131;-61
2023/12/26 06:54:09;;;;;;;28.05;3.90;;;;;;;12.45;87.08;101131.66;5018800;28;20063;-62
2023/12/26 06:56:36;;;;;;;23.20;3.30;;;;;;;12.61;86.74;101130.13;5053951;28;20052;-61
2023/12/26 06:59:03;;;;;;;18.40;3.20;;;;;;;12.71;85.89;101135.38;5037946;28;20060;-63
2023/12/26 07:01:33;;;;;;;17.60;3.00;;;;;;;12.50;86.00;101139.00;5053246;28;20049;-61
2023/12/26 07:04:01;;;;;;;20.30;3.15;;;;;;;12.44;86.96;101135.56;5016416;28;20422;-61
2023/12/26 07:06:29;;;;;;;22.65;3.65;;;;;;;12.47;86.40;101126.63;4999372;28;20052;-62
2023/12/26 07:08:57;;;;;;;18.90;2.88;;;;;;;12.45;86.23;101129.72;5045653;28;20534;-60
2023/12/26 07:11:24;;;;;;;22.48;3.88;;;;;;;12.42;85.74;101141.41;5033392;28;20060;-61
2023/12/26 07:13:51;;;;;;;15.20;2.72;;;;;;;12.36;85.92;101148.16;5050293;28;20076;-62
2023/12/26 07:16:19;;;;;;;22.65;3.38;;;;;;;12.47;85.30;101157.00;5034867;28;20519;-66
2023/12/26 07:18:47;;;;;;;19.70;3.10;;;;;;;12.58;84.92;101150.09;5052855;28;20049;-67
2023/12/26 07:21:17;;;;;;;21.80;3.13;;;;;;;12.49;85.23;101163.03;5053430;28;20041;-66
2023/12/26 07:23:46;;;;;;;20.48;4.03;;;;;;;12.52;84.93;101167.13;5031969;28;20065;-66
2023/12/26 07:26:14;;;;;;;20.38;2.90;;;;;;;12.68;84.25;101174.72;5050570;28;20130;-66
2023/12/26 07:28:41;;;;;;;17.42;2.97;;;;;;;12.55;83.79;101180.31;5053313;28;20056;-65
2023/12/26 07:31:09;;;;;;;20.23;3.00;;;;;;;12.82;83.99;101180.97;5053142;28;20387;-65
2023/12/26 07:33:38;;;;;;;16.35;3.08;;;;;;;13.05;81.88;101192.81;5035148;28;20060;-66
2023/12/26 07:36:10;;;;;;;23.92;4.15;;;;;;;12.70;83.04;101194.56;5051764;28;20053;-66
2023/12/26 07:38:37;;;;;;;20.50;3.95;;;;;;;12.54;83.63;101196.06;5035700;28;20052;-65
2023/12/26 07:41:05;;;;;;;21.27;3.28;;;;;;;12.57;83.78;101203.72;5034914;28;20147;-65
2023/12/26 07:43:32;;;;;;;16.25;2.83;;;;;;;12.62;84.26;101211.09;5035386;28;20048;-65
2023/12/26 07:46:00;;;;;;;24.83;3.38;;;;;;;12.59;83.88;101203.44;5018488;28;20052;-66
2023/12/26 07:48:27;;;;;;;21.15;3.25;;;;;;;12.48;84.25;101208.41;5037043;28;20059;-66
2023/12/26 07:50:55;;;;;;;17.40;3.13;;;;;;;12.66;84.64;101212.09;5034763;28;20060;-66
2023/12/26 07:53:22;;;;;;;24.10;3.63;;;;;;;12.47;84.78;101223.31;5035124;28;20061;-66
2023/12/26 07:55:50;;;;;;;19.77;3.45;;;;;;;12.78;84.22;101220.63;5053279;28;20048;-65
2023/12/26 07:58:17;;;;;;;16.88;2.75;;;;;;;12.72;83.91;101221.88;5052775;28;20053;-66
2023/12/26 08:00:44;;;;;;;16.65;4.00;;;;;;;12.70;83.81;101232.44;5034120;28;20581;-65
2023/12/26 08:03:15;;;;;;;16.52;3.03;;;;;;;12.61;84.65;101235.13;5053118;28;20045;-65
2023/12/26 08:05:43;;;;;;;16.52;3.33;;;;;;;12.50;85.42;101235.72;5051475;28;20087;-66
2023/12/26 08:08:11;;;;;;;21.30;2.75;;;;;;;12.62;85.01;101244.25;5051350;28;20056;-65
2023/12/26 08:10:41;;;;;;;20.27;3.40;;;;;;;12.57;84.98;101258.19;5033573;28;20603;-65
2023/12/26 08:13:09;;;;;;;20.77;3.40;;;;;;;12.79;84.56;101264.53;5051051;28;20056;-65
2023/12/26 08:15:37;;;;;;;20.08;2.92;;;;;;;12.76;84.18;101262.38;5051921;28;20048;-66
2023/12/26 08:18:04;;;;;;;19.80;2.90;;;;;;;12.72;84.16;101271.63;5052213;28;20060;-65
2023/12/26 08:20:33;;;;;;;21.40;3.38;;;;;;;12.78;84.56;101275.91;5017107;28;20685;-66
2023/12/26 08:23:01;;;;;;;17.23;3.28;;;;;;;12.79;84.83;101266.47;5051703;28;20072;-65
2023/12/26 08:25:28;;;;;;;13.60;2.88;;;;;;;12.74;85.36;101274.91;5034719;28;20044;-69
2023/12/26 08:27:56;;;;;;;17.40;3.78;;;;;;;12.55;85.66;101272.34;5034578;28;20041;-66
2023/12/26 08:30:23;;;;;;;18.20;3.42;;;;;;;12.66;85.13;101272.91;5034018;28;20494;-66
2023/12/26 08:32:51;;;;;;;15.35;3.08;;;;;;;12.70;84.91;101287.72;5052339;28;20055;-66
2023/12/26 08:35:19;;;;;;;14.70;2.55;;;;;;;12.71;85.13;101287.41;5052515;28;20045;-66
2023/12/26 08:37:46;;;;;;;19.48;2.47;;;;;;;12.72;85.20;101291.81;5048596;28;20045;-66
2023/12/26 08:40:14;;;;;;;21.30;3.35;;;;;;;12.72;85.23;101299.28;5052285;28;20056;-65
2023/12/26 08:42:41;;;;;;;18.88;3.15;;;;;;;12.65;85.51;101304.41;5052051;28;20045;-66
2023/12/26 08:45:09;;;;;;;22.08;3.33;;;;;;;12.80;85.37;101302.09;5051614;28;20519;-66
2023/12/26 08:47:36;;;;;;;19.92;3.20;;;;;;;12.58;86.05;101302.09;5034134;28;20120;-65
2023/12/26 08:50:05;;;;;;;15.20;2.78;;;;;;;12.74;85.92;101297.84;5050581;28;20056;-66
2023/12/26 08:52:33;;;;;;;22.67;3.57;;;;;;;12.63;86.05;101295.63;5051998;28;20046;-65
2023/12/26 08:55:00;;;;;;;20.27;3.95;;;;;;;12.74;86.16;101299.78;5052187;28;20281;-67
2023/12/26 08:57:27;;;;;;;12.95;2.70;;;;;;;12.66;87.80;101308.84;5034624;28;20053;-66
2023/12/26 08:59:55;;;;;;;19.27;3.83;;;;;;;12.73;88.32;101301.72;5050172;28;20053;-66
2023/12/26 09:02:22;;;;;;;19.10;3.85;;;;;;;12.57;90.32;101308.72;5055741;28;20424;-67
2023/12/26 09:04:49;;;;;;;22.15;4.18;;;;;;;12.64;90.60;101306.34;5055364;28;20528;-66
2023/12/26 09:07:17;;;;;;;17.23;4.13;;;;;;;12.63;90.66;101314.97;5038043;28;20061;-66
2023/12/26 09:09:44;;;;;;;18.60;3.35;;;;;;;12.60;91.32;101334.94;5055328;28;20069;-66
2023/12/26 09:12:12;;;;;;;12.90;3.33;;;;;;;12.57;91.88;101341.09;5049962;28;20565;-67
2023/12/26 09:14:39;;;;;;;18.50;3.58;;;;;;;12.77;91.91;101354.44;5026791;28;20044;-66
2023/12/26 09:17:07;;;;;;;18.77;3.33;;;;;;;12.59;92.53;101347.94;5055445;28;20086;-67
2023/12/26 09:19:34;;;;;;;20.00;3.35;;;;;;;12.38;94.02;101355.03;5054504;28;20045;-66
2023/12/26 09:22:02;;;;;;;22.45;3.88;;;;;;;12.39;94.78;101356.69;5055041;28;20055;-66
2023/12/26 09:24:29;;;;;;;20.48;3.53;;;;;;;12.41;94.94;101369.06;5036810;28;20057;-66
2023/12/26 09:26:57;;;;;;;19.85;3.28;;;;;;;12.35;95.89;101372.25;5054179;28;20049;-66
2023/12/26 09:29:24;;;;;;;15.63;3.20;;;;;;;12.30;96.53;101373.19;5055292;28;20657;-66
2023/12/26 09:31:53;;;;;;;15.63;3.42;;;;;;;12.45;96.54;101370.09;5053733;28;20053;-66
2023/12/26 09:34:20;;;;;;;14.90;3.15;;;;;;;12.36;96.31;101374.69;5054620;28;20045;-66
2023/12/26 09:36:48;;;;;;;13.77;3.33;;;;;;;12.41;96.27;101373.78;5037502;28;20053;-66
2023/12/26 09:39:15;;;;;;;14.90;3.75;;;;;;;12.49;95.92;101373.03;5037124;28;20057;-66
2023/12/26 09:41:43;;;;;;;12.68;3.70;;;;;;;12.50;95.99;101385.72;5028574;28;20044;-66
2023/12/26 09:44:11;;;;;;;16.35;2.97;;;;;;;12.42;95.33;101391.97;5053635;28;20401;-66
2023/12/26 09:46:38;;;;;;;19.83;3.13;;;;;;;12.41;95.55;101404.19;5037048;28;20124;-65
2023/12/26 09:49:06;;;;;;;12.18;2.80;;;;;;;12.64;93.82;101405.84;5033021;28;20061;-66
2023/12/26 09:51:44;;;;;;;14.45;2.80;;;;;;;12.80;93.22;101409.09;5032700;28;20049;-67
2023/12/26 09:54:12;;;;;;;14.60;2.72;;;;;;;12.57;93.39;101412.94;5033260;28;20084;-65
2023/12/26 09:56:43;;;;;;;16.60;3.47;;;;;;;12.58;94.01;101420.09;5019826;28;20053;-66
2023/12/26 09:59:10;;;;;;;;;;;;;;;12.64;93.12;101413.34;5020824;28;20415;-66
2023/12/26 10:01:37;;;;;;;13.15;3.28;;;;;;;12.63;93.98;101422.75;5053136;28;20395;-65
2023/12/26 10:04:06;;;;;;;15.50;3.17;;;;;;;12.62;93.88;101434.94;5019630;28;20044;-66
2023/12/26 10:06:34;;;;;;;13.10;3.13;;;;;;;12.65;94.16;101434.31;5053999;28;20654;-65
2023/12/26 10:09:02;;;;;;;13.45;3.28;;;;;;;12.74;93.65;101438.81;5036488;28;20045;-67
2023/12/26 10:11:32;;;;;;;12.10;3.42;;;;;;;12.64;93.40;101441.78;5053664;28;20167;-66
2023/12/26 10:13:59;;;;;;;10.35;3.47;;;;;;;12.87;93.35;101448.19;5036059;28;20072;-67
2023/12/26 10:16:27;;;;;;;14.13;3.13;;;;;;;13.00;92.63;101442.66;5052806;28;20053;-66
2023/12/26 10:18:54;;;;;;;12.50;2.92;;;;;;;12.57;92.69;101446.91;5049839;28;20436;-67
2023/12/26 10:21:22;;;;;;;11.07;3.10;;;;;;;12.42;94.91;101452.78;5035146;28;20065;-65
2023/12/26 10:23:50;;;;;;;10.95;2.92;;;;;;;12.63;94.48;101447.63;5030098;28;20041;-65
2023/12/26 10:26:17;;;;;;;10.55;2.75;;;;;;;12.60;93.93;101448.25;5052745;28;20045;-66
2023/12/26 10:28:46;;;;;;;13.30;3.33;;;;;;;12.51;94.31;101436.28;5035928;28;20064;-66
2023/12/26 10:31:15;;;;;;;13.57;3.47;;;;;;;12.65;94.38;101426.84;5036443;28;20064;-67
2023/12/26 10:33:43;;;;;;;10.02;3.65;;;;;;;12.75;93.82;101439.63;5054796;28;20045;-65
2023/12/26 10:36:11;;;;;;;13.75;3.50;;;;;;;12.79;92.86;101446.16;5054448;28;20044;-66
2023/12/26 10:38:44;;;;;;;10.60;2.70;;;;;;;12.80;93.57;101456.09;5037162;28;20103;-66
2023/12/26 10:41:24;;;;;;;10.60;3.10;;;;;;;12.82;93.00;101460.19;5034471;28;20053;-66
2023/12/26 10:43:55;;;;;;;9.77;2.83;;;;;;;12.70;92.92;101453.56;5033578;28;20053;-66
2023/12/26 10:46:23;;;;;;;12.25;3.05;;;;;;;12.84;92.96;101452.41;5016810;28;20061;-65
2023/12/26 10:48:53;;;;;;;12.18;2.83;;;;;;;13.00;92.11;101441.81;5034093;28;20050;-66
2023/12/26 10:51:21;;;;;;;;;;;;;;;13.09;91.46;101446.31;5016922;28;20049;-67
2023/12/26 10:54:06;;;;;;;14.48;2.80;;;;;;;12.85;91.65;101444.94;5044649;28;19921;-65
2023/12/26 10:56:34;;;;;;;7.60;2.38;;;;;;;12.91;91.76;101444.50;5054191;28;20057;-66
2023/12/26 10:59:03;;;;;;;12.27;3.08;;;;;;;13.05;91.57;101438.97;5017026;28;20064;-65
2023/12/26 13:52:42;;;;;;;7.00;2.63;;;;;;;13.25;91.51;101417.16;5053898;28;20049;-66
2023/12/26 13:55:47;;;;;;;9.73;2.40;;;;;;;13.47;90.75;101422.72;5021691;28;20041;-65
2023/12/26 13:58:14;;;;;;;11.88;3.50;;;;;;;13.22;91.43;101417.78;5035482;28;20063;-65
2023/12/26 14:00:42;;;;;;;10.80;4.40;;;;;;;13.45;91.33;101421.38;5036575;28;20056;-67
2023/12/26 14:03:50;;;;;;;11.05;4.55;;;;;;;13.53;90.14;101423.38;5036606;28;20057;-65
2023/12/26 14:06:56;;;;;;;12.27;3.00;;;;;;;13.39;90.13;101428.97;5003357;28;20052;-59
2023/12/26 14:09:26;;;;;;;7.05;2.30;;;;;;;13.26;91.34;101427.13;5037203;28;20057;-60
2023/12/26 14:11:54;;;;;;;8.93;2.20;;;;;;;13.41;91.19;101423.97;5019394;28;20053;-60